sensor_id;sensor_type;location;lat;lon;timestamp;pressure;altitude;pressure_sealevel;temperature;humidity
23899;BME280;20544;50.018;20.010;2024-03-07T00:00:32;99302.38;;;3.01;100.00
23899;BME280;20544;50.018;20.010;2024-03-07T00:03:53;99300.11;;;2.96;100.00
23899;BME280;20544;50.018;20.010;2024-03-07T00:07:15;99303.08;;;2.91;100.00
23899;BME280;20544;50.018;20.010;2024-03-07T00:10:40;99297.27;;;2.88;100.00
23899;BME280;20544;50.018;20.010;2024-03-07T00:14:15;99302.13;;;2.93;100.00
23899;BME280;20544;50.018;20.010;2024-03-07T00:17:48;99305.70;;;2.91;100.00
23899;BME280;20544;50.018;20.010;2024-03-07T00:21:25;99302.03;;;2.94;100.00
23899;BME280;20544;50.018;20.010;2024-03-07T00:25:01;99298.81;;;2.90;100.00
23899;BME280;20544;50.018;20.010;2024-03-07T00:28:35;99287.61;;;2.88;100.00
23899;BME280;20544;50.018;20.010;2024-03-07T00:32:14;99289.28;;;2.89;100.00
23899;BME280;20544;50.018;20.010;2024-03-07T00:35:49;99298.09;;;2.88;100.00
23899;BME280;20544;50.018;20.010;2024-03-07T00:39:23;99295.34;;;2.90;100.00
23899;BME280;20544;50.018;20.010;2024-03-07T00:42:47;99296.19;;;2.90;100.00
23899;BME280;20544;50.018;20.010;2024-03-07T00:46:15;99295.13;;;2.82;100.00
23899;BME280;20544;50.018;20.010;2024-03-07T00:49:45;99289.76;;;2.83;100.00
23899;BME280;20544;50.018;20.010;2024-03-07T00:53:11;99287.73;;;2.87;100.00
23899;BME280;20544;50.018;20.010;2024-03-07T00:56:38;99294.75;;;2.86;100.00
23899;BME280;20544;50.018;20.010;2024-03-07T01:00:15;99288.43;;;2.89;100.00
23899;BME280;20544;50.018;20.010;2024-03-07T01:03:38;99280.70;;;2.87;100.00
23899;BME280;20544;50.018;20.010;2024-03-07T01:07:02;99282.23;;;2.90;100.00
23899;BME280;20544;50.018;20.010;2024-03-07T01:10:24;99286.31;;;2.94;100.00
23899;BME280;20544;50.018;20.010;2024-03-07T01:13:51;99287.25;;;2.93;100.00
23899;BME280;20544;50.018;20.010;2024-03-07T01:17:19;99286.53;;;2.91;100.00
23899;BME280;20544;50.018;20.010;2024-03-07T01:20:46;99289.97;;;2.91;100.00
23899;BME280;20544;50.018;20.010;2024-03-07T01:24:12;99289.41;;;2.88;100.00
23899;BME280;20544;50.018;20.010;2024-03-07T01:27:38;99293.33;;;2.82;100.00
23899;BME280;20544;50.018;20.010;2024-03-07T01:31:04;99288.09;;;2.82;100.00
23899;BME280;20544;50.018;20.010;2024-03-07T01:34:31;99293.20;;;2.84;100.00
23899;BME280;20544;50.018;20.010;2024-03-07T01:37:59;99285.00;;;2.77;100.00
23899;BME280;20544;50.018;20.010;2024-03-07T01:41:28;99296.30;;;2.78;100.00
23899;BME280;20544;50.018;20.010;2024-03-07T01:44:49;99288.09;;;2.82;100.00
23899;BME280;20544;50.018;20.010;2024-03-07T01:48:12;99292.60;;;2.80;100.00
23899;BME280;20544;50.018;20.010;2024-03-07T01:51:41;99281.30;;;2.80;100.00
23899;BME280;20544;50.018;20.010;2024-03-07T01:55:14;99287.27;;;2.82;100.00
23899;BME280;20544;50.018;20.010;2024-03-07T01:58:40;99285.59;;;2.81;100.00
23899;BME280;20544;50.018;20.010;2024-03-07T02:02:10;99280.09;;;2.84;100.00
23899;BME280;20544;50.018;20.010;2024-03-07T02:05:36;99281.90;;;2.83;100.00
23899;BME280;20544;50.018;20.010;2024-03-07T02:08:59;99279.50;;;2.80;100.00
23899;BME280;20544;50.018;20.010;2024-03-07T02:12:25;99286.29;;;2.83;100.00
23899;BME280;20544;50.018;20.010;2024-03-07T02:16:06;99275.24;;;2.79;100.00
23899;BME280;20544;50.018;20.010;2024-03-07T02:19:26;99277.14;;;2.77;100.00
23899;BME280;20544;50.018;20.010;2024-03-07T02:22:53;99278.08;;;2.76;100.00
23899;BME280;20544;50.018;20.010;2024-03-07T02:26:21;99279.16;;;2.73;100.00
23899;BME280;20544;50.018;20.010;2024-03-07T02:29:45;99275.81;;;2.71;100.00
23899;BME280;20544;50.018;20.010;2024-03-07T02:33:09;99286.30;;;2.71;100.00
23899;BME280;20544;50.018;20.010;2024-03-07T02:36:43;99290.45;;;2.63;100.00
23899;BME280;20544;50.018;20.010;2024-03-07T02:40:16;99291.78;;;2.57;100.00
23899;BME280;20544;50.018;20.010;2024-03-07T02:43:39;99273.45;;;2.57;100.00
23899;BME280;20544;50.018;20.010;2024-03-07T02:47:13;99282.85;;;2.59;100.00
23899;BME280;20544;50.018;20.010;2024-03-07T02:50:48;99273.33;;;2.58;100.00
23899;BME280;20544;50.018;20.010;2024-03-07T02:54:19;99282.98;;;2.58;100.00
23899;BME280;20544;50.018;20.010;2024-03-07T02:57:56;99280.45;;;2.56;100.00
23899;BME280;20544;50.018;20.010;2024-03-07T03:01:32;99286.64;;;2.55;100.00
23899;BME280;20544;50.018;20.010;2024-03-07T03:05:09;99284.27;;;2.52;100.00
23899;BME280;20544;50.018;20.010;2024-03-07T03:08:47;99286.29;;;2.49;100.00
23899;BME280;20544;50.018;20.010;2024-03-07T03:12:18;99288.55;;;2.42;100.00
23899;BME280;20544;50.018;20.010;2024-03-07T03:15:47;99286.41;;;2.36;100.00
23899;BME280;20544;50.018;20.010;2024-03-07T03:19:21;99298.16;;;2.30;100.00
23899;BME280;20544;50.018;20.010;2024-03-07T03:23:00;99294.94;;;2.26;100.00
23899;BME280;20544;50.018;20.010;2024-03-07T03:26:52;99290.55;;;2.27;100.00
23899;BME280;20544;50.018;20.010;2024-03-07T03:30:35;99289.00;;;2.24;100.00
23899;BME280;20544;50.018;20.010;2024-03-07T03:34:09;99293.27;;;2.25;100.00
23899;BME280;20544;50.018;20.010;2024-03-07T03:37:43;99283.98;;;2.21;100.00
23899;BME280;20544;50.018;20.010;2024-03-07T03:41:32;99283.25;;;2.19;100.00
23899;BME280;20544;50.018;20.010;2024-03-07T03:45:03;99292.17;;;2.17;100.00
23899;BME280;20544;50.018;20.010;2024-03-07T03:48:30;99296.84;;;2.13;100.00
23899;BME280;20544;50.018;20.010;2024-03-07T03:52:09;99290.75;;;2.13;100.00
23899;BME280;20544;50.018;20.010;2024-03-07T03:55:58;99289.20;;;2.10;100.00
23899;BME280;20544;50.018;20.010;2024-03-07T03:59:30;99290.27;;;2.07;100.00
23899;BME280;20544;50.018;20.010;2024-03-07T04:03:13;99295.62;;;2.06;100.00
23899;BME280;20544;50.018;20.010;2024-03-07T04:06:48;99291.08;;;2.08;100.00
23899;BME280;20544;50.018;20.010;2024-03-07T04:10:09;99294.67;;;2.07;100.00
23899;BME280;20544;50.018;20.010;2024-03-07T04:13:39;99295.01;;;2.02;100.00
23899;BME280;20544;50.018;20.010;2024-03-07T04:17:02;99303.68;;;2.03;100.00
23899;BME280;20544;50.018;20.010;2024-03-07T04:20:27;99299.39;;;2.02;100.00
23899;BME280;20544;50.018;20.010;2024-03-07T04:27:39;99298.53;;;1.90;100.00
23899;BME280;20544;50.018;20.010;2024-03-07T04:31:06;99306.99;;;1.93;100.00
23899;BME280;20544;50.018;20.010;2024-03-07T04:34:32;99300.09;;;1.92;100.00
23899;BME280;20544;50.018;20.010;2024-03-07T04:37:56;99299.81;;;1.84;100.00
23899;BME280;20544;50.018;20.010;2024-03-07T04:41:18;99303.28;;;1.85;100.00
23899;BME280;20544;50.018;20.010;2024-03-07T04:44:43;99303.98;;;1.87;100.00
23899;BME280;20544;50.018;20.010;2024-03-07T04:48:09;99299.11;;;1.82;100.00
23899;BME280;20544;50.018;20.010;2024-03-07T04:55:35;99311.83;;;1.87;100.00
23899;BME280;20544;50.018;20.010;2024-03-07T04:59:25;99322.16;;;1.77;100.00
23899;BME280;20544;50.018;20.010;2024-03-07T05:03:01;99317.75;;;1.77;100.00
23899;BME280;20544;50.018;20.010;2024-03-07T05:07:01;99323.42;;;1.71;100.00
23899;BME280;20544;50.018;20.010;2024-03-07T05:10:28;99322.20;;;1.64;100.00
23899;BME280;20544;50.018;20.010;2024-03-07T05:13:54;99324.11;;;1.62;100.00
23899;BME280;20544;50.018;20.010;2024-03-07T05:17:23;99321.70;;;1.59;100.00
23899;BME280;20544;50.018;20.010;2024-03-07T05:20:52;99324.31;;;1.59;100.00
23899;BME280;20544;50.018;20.010;2024-03-07T05:24:52;99331.66;;;1.54;100.00
23899;BME280;20544;50.018;20.010;2024-03-07T05:28:28;99337.02;;;1.52;100.00
23899;BME280;20544;50.018;20.010;2024-03-07T05:31:54;99339.83;;;1.49;100.00
23899;BME280;20544;50.018;20.010;2024-03-07T05:35:34;99330.22;;;1.50;100.00
23899;BME280;20544;50.018;20.010;2024-03-07T05:38:59;99339.01;;;1.49;100.00
23899;BME280;20544;50.018;20.010;2024-03-07T05:42:45;99343.73;;;1.43;100.00
23899;BME280;20544;50.018;20.010;2024-03-07T05:46:12;99350.29;;;1.49;100.00
23899;BME280;20544;50.018;20.010;2024-03-07T05:53:37;99349.58;;;1.47;100.00
23899;BME280;20544;50.018;20.010;2024-03-07T05:57:21;99362.86;;;1.44;100.00
23899;BME280;20544;50.018;20.010;2024-03-07T06:04:39;99348.73;;;1.47;100.00
23899;BME280;20544;50.018;20.010;2024-03-07T06:08:22;99351.02;;;1.51;100.00
23899;BME280;20544;50.018;20.010;2024-03-07T06:11:54;99357.31;;;1.49;100.00
23899;BME280;20544;50.018;20.010;2024-03-07T06:15:29;99358.37;;;1.46;100.00
23899;BME280;20544;50.018;20.010;2024-03-07T06:19:14;99369.14;;;1.41;100.00
23899;BME280;20544;50.018;20.010;2024-03-07T06:22:37;99372.70;;;1.40;100.00
23899;BME280;20544;50.018;20.010;2024-03-07T06:25:58;99365.59;;;1.42;100.00
23899;BME280;20544;50.018;20.010;2024-03-07T06:29:30;99383.58;;;1.34;100.00
23899;BME280;20544;50.018;20.010;2024-03-07T06:32:57;99371.45;;;1.33;100.00
23899;BME280;20544;50.018;20.010;2024-03-07T06:36:28;99378.59;;;1.31;100.00
23899;BME280;20544;50.018;20.010;2024-03-07T06:39:55;99375.23;;;1.29;100.00
23899;BME280;20544;50.018;20.010;2024-03-07T06:43:31;99386.63;;;1.28;100.00
23899;BME280;20544;50.018;20.010;2024-03-07T06:46:58;99389.98;;;1.30;100.00
23899;BME280;20544;50.018;20.010;2024-03-07T06:50:27;99386.86;;;1.25;100.00
23899;BME280;20544;50.018;20.010;2024-03-07T06:54:23;99388.30;;;1.29;100.00
23899;BME280;20544;50.018;20.010;2024-03-07T06:57:52;99388.30;;;1.29;100.00
23899;BME280;20544;50.018;20.010;2024-03-07T07:01:31;99391.66;;;1.31;100.00
23899;BME280;20544;50.018;20.010;2024-03-07T07:05:20;99401.26;;;1.31;100.00
23899;BME280;20544;50.018;20.010;2024-03-07T07:08:48;99400.44;;;1.30;100.00
23899;BME280;20544;50.018;20.010;2024-03-07T07:15:36;99400.44;;;1.30;100.00
23899;BME280;20544;50.018;20.010;2024-03-07T07:19:40;99399.27;;;1.34;100.00
23899;BME280;20544;50.018;20.010;2024-03-07T07:23:24;99404.61;;;1.33;100.00
23899;BME280;20544;50.018;20.010;2024-03-07T07:27:10;99405.97;;;1.25;100.00
23899;BME280;20544;50.018;20.010;2024-03-07T07:30:50;99411.09;;;1.27;100.00
23899;BME280;20544;50.018;20.010;2024-03-07T07:34:36;99403.36;;;1.25;100.00
23899;BME280;20544;50.018;20.010;2024-03-07T07:38:07;99423.22;;;1.28;100.00
23899;BME280;20544;50.018;20.010;2024-03-07T07:41:35;99409.45;;;1.26;100.00
23899;BME280;20544;50.018;20.010;2024-03-07T07:44:58;99411.83;;;1.29;100.00
23899;BME280;20544;50.018;20.010;2024-03-07T07:51:39;99412.88;;;1.26;100.00
23899;BME280;20544;50.018;20.010;2024-03-07T07:55:00;99419.05;;;1.25;100.00
23899;BME280;20544;50.018;20.010;2024-03-07T07:58:47;99407.97;;;1.22;100.00
23899;BME280;20544;50.018;20.010;2024-03-07T08:02:29;99413.08;;;1.23;100.00
23899;BME280;20544;50.018;20.010;2024-03-07T08:06:08;99421.03;;;1.22;100.00
23899;BME280;20544;50.018;20.010;2024-03-07T08:10:29;99418.42;;;1.22;100.00
23899;BME280;20544;50.018;20.010;2024-03-07T08:14:27;99409.64;;;1.23;100.00
23899;BME280;20544;50.018;20.010;2024-03-07T08:17:51;99430.78;;;1.20;100.00
23899;BME280;20544;50.018;20.010;2024-03-07T08:21:32;99428.98;;;1.20;100.00
23899;BME280;20544;50.018;20.010;2024-03-07T08:24:59;99422.94;;;1.20;100.00
23899;BME280;20544;50.018;20.010;2024-03-07T08:28:32;99433.39;;;1.20;100.00
23899;BME280;20544;50.018;20.010;2024-03-07T08:31:58;99425.86;;;1.15;100.00
23899;BME280;20544;50.018;20.010;2024-03-07T08:35:31;99427.00;;;1.24;100.00
23899;BME280;20544;50.018;20.010;2024-03-07T08:39:07;99427.94;;;1.23;100.00
23899;BME280;20544;50.018;20.010;2024-03-07T08:42:42;99427.94;;;1.23;100.00
23899;BME280;20544;50.018;20.010;2024-03-07T08:46:34;99428.05;;;1.21;100.00
23899;BME280;20544;50.018;20.010;2024-03-07T08:50:02;99421.89;;;1.22;100.00
23899;BME280;20544;50.018;20.010;2024-03-07T08:53:32;99436.72;;;1.22;100.00
23899;BME280;20544;50.018;20.010;2024-03-07T08:57:14;99439.33;;;1.22;100.00
23899;BME280;20544;50.018;20.010;2024-03-07T09:01:00;99435.66;;;1.24;100.00
23899;BME280;20544;50.018;20.010;2024-03-07T09:04:31;99443.63;;;1.23;100.00
23899;BME280;20544;50.018;20.010;2024-03-07T09:12:14;99432.73;;;1.29;100.00
23899;BME280;20544;50.018;20.010;2024-03-07T09:15:49;99429.19;;;1.30;100.00
23899;BME280;20544;50.018;20.010;2024-03-07T09:19:23;99445.50;;;1.34;100.00
23899;BME280;20544;50.018;20.010;2024-03-07T09:22:57;99442.14;;;1.32;100.00
23899;BME280;20544;50.018;20.010;2024-03-07T09:26:39;99437.14;;;1.28;100.00
23899;BME280;20544;50.018;20.010;2024-03-07T09:30:16;99456.27;;;1.29;100.00
23899;BME280;20544;50.018;20.010;2024-03-07T09:33:55;99450.92;;;1.31;100.00
23899;BME280;20544;50.018;20.010;2024-03-07T09:37:19;99443.00;;;1.32;100.00
23899;BME280;20544;50.018;20.010;2024-03-07T09:45:36;99452.18;;;1.38;100.00
23899;BME280;20544;50.018;20.010;2024-03-07T09:49:14;99454.39;;;1.31;100.00
23899;BME280;20544;50.018;20.010;2024-03-07T09:52:49;99455.45;;;1.28;100.00
23899;BME280;20544;50.018;20.010;2024-03-07T09:56:20;99458.69;;;1.32;100.00
23899;BME280;20544;50.018;20.010;2024-03-07T09:59:54;99453.88;;;1.26;100.00
23899;BME280;20544;50.018;20.010;2024-03-07T10:03:42;99467.46;;;1.31;100.00
23899;BME280;20544;50.018;20.010;2024-03-07T10:07:25;99465.90;;;1.28;100.00
23899;BME280;20544;50.018;20.010;2024-03-07T10:10:57;99468.40;;;1.30;100.00
23899;BME280;20544;50.018;20.010;2024-03-07T10:14:26;99468.09;;;1.35;100.00
23899;BME280;20544;50.018;20.010;2024-03-07T10:17:59;99465.36;;;1.36;100.00
23899;BME280;20544;50.018;20.010;2024-03-07T10:21:33;99468.38;;;1.43;100.00
23899;BME280;20544;50.018;20.010;2024-03-07T10:25:21;99464.94;;;1.42;100.00
23899;BME280;20544;50.018;20.010;2024-03-07T10:28:47;99467.67;;;1.41;100.00
23899;BME280;20544;50.018;20.010;2024-03-07T10:32:22;99467.75;;;1.39;100.00
23899;BME280;20544;50.018;20.010;2024-03-07T10:35:52;99470.59;;;1.36;100.00
23899;BME280;20544;50.018;20.010;2024-03-07T10:39:14;99466.92;;;1.39;100.00
23899;BME280;20544;50.018;20.010;2024-03-07T10:42:47;99471.11;;;1.41;100.00
23899;BME280;20544;50.018;20.010;2024-03-07T10:46:30;99459.59;;;1.44;100.00
23899;BME280;20544;50.018;20.010;2024-03-07T10:50:16;99471.50;;;1.48;100.00
23899;BME280;20544;50.018;20.010;2024-03-07T10:54:08;99467.24;;;1.47;100.00
23899;BME280;20544;50.018;20.010;2024-03-07T10:57:30;99467.95;;;1.49;100.00
23899;BME280;20544;50.018;20.010;2024-03-07T11:00:58;99472.47;;;1.47;100.00
23899;BME280;20544;50.018;20.010;2024-03-07T11:04:28;99458.34;;;1.50;100.00
23899;BME280;20544;50.018;20.010;2024-03-07T11:08:01;99465.84;;;1.54;100.00
23899;BME280;20544;50.018;20.010;2024-03-07T11:11:30;99453.51;;;1.56;100.00
23899;BME280;20544;50.018;20.010;2024-03-07T11:15:10;99462.18;;;1.57;100.00
23899;BME280;20544;50.018;20.010;2024-03-07T11:22:52;99460.92;;;1.63;100.00
23899;BME280;20544;50.018;20.010;2024-03-07T11:26:41;99467.83;;;1.64;100.00
23899;BME280;20544;50.018;20.010;2024-03-07T11:30:26;99464.37;;;1.63;100.00
23899;BME280;20544;50.018;20.010;2024-03-07T11:34:21;99469.59;;;1.63;100.00
23899;BME280;20544;50.018;20.010;2024-03-07T11:38:05;99472.95;;;1.65;100.00
23899;BME280;20544;50.018;20.010;2024-03-07T11:41:52;99473.06;;;1.64;100.00
23899;BME280;20544;50.018;20.010;2024-03-07T11:45:36;99472.72;;;1.68;100.00
23899;BME280;20544;50.018;20.010;2024-03-07T11:49:20;99468.34;;;1.69;100.00
23899;BME280;20544;50.018;20.010;2024-03-07T11:52:59;99475.34;;;1.68;100.00
23899;BME280;20544;50.018;20.010;2024-03-07T11:56:37;99473.69;;;1.67;100.00
23899;BME280;20544;50.018;20.010;2024-03-07T12:00:23;99467.48;;;1.68;100.00
23899;BME280;20544;50.018;20.010;2024-03-07T12:04:12;99467.41;;;1.70;100.00
23899;BME280;20544;50.018;20.010;2024-03-07T12:07:43;99454.21;;;1.71;100.00
23899;BME280;20544;50.018;20.010;2024-03-07T12:11:16;99449.48;;;1.76;100.00
23899;BME280;20544;50.018;20.010;2024-03-07T12:14:58;99449.37;;;1.78;100.00
23899;BME280;20544;50.018;20.010;2024-03-07T12:18:42;99458.07;;;1.78;100.00
23899;BME280;20544;50.018;20.010;2024-03-07T12:22:30;99465.48;;;1.85;100.00
23899;BME280;20544;50.018;20.010;2024-03-07T12:26:07;99458.07;;;1.78;100.00
23899;BME280;20544;50.018;20.010;2024-03-07T12:29:38;99464.42;;;1.87;100.00
23899;BME280;20544;50.018;20.010;2024-03-07T12:33:01;99462.75;;;1.86;100.00
23899;BME280;20544;50.018;20.010;2024-03-07T12:36:45;99469.78;;;1.86;100.00
23899;BME280;20544;50.018;20.010;2024-03-07T12:40:19;99466.19;;;1.87;100.00
23899;BME280;20544;50.018;20.010;2024-03-07T12:43:48;99457.20;;;1.91;100.00
23899;BME280;20544;50.018;20.010;2024-03-07T12:47:22;99461.05;;;1.98;100.00
23899;BME280;20544;50.018;20.010;2024-03-07T12:50:45;99472.22;;;2.00;100.00
23899;BME280;20544;50.018;20.010;2024-03-07T12:58:05;99464.99;;;2.04;100.00
23899;BME280;20544;50.018;20.010;2024-03-07T13:01:31;99469.05;;;2.08;100.00
23899;BME280;20544;50.018;20.010;2024-03-07T13:04:54;99473.14;;;2.12;100.00
23899;BME280;20544;50.018;20.010;2024-03-07T13:08:20;99468.61;;;2.14;100.00
23899;BME280;20544;50.018;20.010;2024-03-07T13:11:46;99461.98;;;2.21;100.00
23899;BME280;20544;50.018;20.010;2024-03-07T13:15:24;99468.45;;;2.29;100.00
23899;BME280;20544;50.018;20.010;2024-03-07T13:18:57;99468.13;;;2.33;100.00
23899;BME280;20544;50.018;20.010;2024-03-07T13:22:19;99460.16;;;2.35;100.00
23899;BME280;20544;50.018;20.010;2024-03-07T13:25:59;99453.73;;;2.39;100.00
23899;BME280;20544;50.018;20.010;2024-03-07T13:29:31;99459.58;;;2.42;100.00
23899;BME280;20544;50.018;20.010;2024-03-07T13:32:59;99465.44;;;2.46;100.00
23899;BME280;20544;50.018;20.010;2024-03-07T13:36:36;99463.19;;;2.53;100.00
23899;BME280;20544;50.018;20.010;2024-03-07T13:40:00;99467.97;;;2.59;100.00
23899;BME280;20544;50.018;20.010;2024-03-07T13:43:33;99464.07;;;2.65;100.00
23899;BME280;20544;50.018;20.010;2024-03-07T13:47:02;99462.89;;;2.69;100.00
23899;BME280;20544;50.018;20.010;2024-03-07T13:50:31;99458.38;;;2.71;100.00
23899;BME280;20544;50.018;20.010;2024-03-07T13:54:09;99456.36;;;2.74;100.00
23899;BME280;20544;50.018;20.010;2024-03-07T13:57:52;99456.03;;;2.79;100.00
23899;BME280;20544;50.018;20.010;2024-03-07T14:01:37;99454.96;;;2.82;100.00
23899;BME280;20544;50.018;20.010;2024-03-07T14:05:19;99450.55;;;2.82;100.00
23899;BME280;20544;50.018;20.010;2024-03-07T14:09:25;99445.17;;;2.84;100.00
23899;BME280;20544;50.018;20.010;2024-03-07T14:13:26;99457.21;;;2.86;100.00
23899;BME280;20544;50.018;20.010;2024-03-07T14:17:13;99455.32;;;2.88;100.00
23899;BME280;20544;50.018;20.010;2024-03-07T14:25:39;99453.19;;;2.94;100.00
23899;BME280;20544;50.018;20.010;2024-03-07T14:29:20;99458.78;;;3.00;100.00
23899;BME280;20544;50.018;20.010;2024-03-07T14:32:42;99443.78;;;3.02;100.00
23899;BME280;20544;50.018;20.010;2024-03-07T14:36:13;99449.63;;;3.06;100.00
23899;BME280;20544;50.018;20.010;2024-03-07T14:39:37;99446.88;;;3.07;100.00
23899;BME280;20544;50.018;20.010;2024-03-07T14:43:04;99445.12;;;3.08;100.00
23899;BME280;20544;50.018;20.010;2024-03-07T14:46:24;99445.81;;;3.10;100.00
23899;BME280;20544;50.018;20.010;2024-03-07T14:49:48;99447.36;;;3.13;100.00
23899;BME280;20544;50.018;20.010;2024-03-07T14:53:07;99437.00;;;3.11;100.00
23899;BME280;20544;50.018;20.010;2024-03-07T14:56:46;99435.11;;;3.13;100.00
23899;BME280;20544;50.018;20.010;2024-03-07T15:00:36;99437.95;;;3.10;100.00
23899;BME280;20544;50.018;20.010;2024-03-07T15:04:04;99437.85;;;3.12;100.00
23899;BME280;20544;50.018;20.010;2024-03-07T15:07:29;99444.87;;;3.11;100.00
23899;BME280;20544;50.018;20.010;2024-03-07T15:11:05;99433.56;;;3.11;100.00
23899;BME280;20544;50.018;20.010;2024-03-07T15:14:39;99437.13;;;3.10;100.00
23899;BME280;20544;50.018;20.010;2024-03-07T15:18:04;99431.88;;;3.10;100.00
23899;BME280;20544;50.018;20.010;2024-03-07T15:21:32;99431.88;;;3.10;100.00
23899;BME280;20544;50.018;20.010;2024-03-07T15:24:55;99430.69;;;3.14;100.00
23899;BME280;20544;50.018;20.010;2024-03-07T15:28:20;99434.98;;;3.15;100.00
23899;BME280;20544;50.018;20.010;2024-03-07T15:31:40;99442.84;;;3.15;100.00
23899;BME280;20544;50.018;20.010;2024-03-07T15:34:57;99439.28;;;3.16;100.00
23899;BME280;20544;50.018;20.010;2024-03-07T15:38:17;99430.56;;;3.15;100.00
23899;BME280;20544;50.018;20.010;2024-03-07T15:41:50;99439.50;;;3.13;100.00
23899;BME280;20544;50.018;20.010;2024-03-07T15:45:15;99445.94;;;3.08;100.00
23899;BME280;20544;50.018;20.010;2024-03-07T15:48:34;99444.17;;;3.09;100.00
23899;BME280;20544;50.018;20.010;2024-03-07T15:52:02;99438.92;;;3.09;100.00
23899;BME280;20544;50.018;20.010;2024-03-07T15:55:25;99446.79;;;3.09;100.00
23899;BME280;20544;50.018;20.010;2024-03-07T15:58:42;99452.25;;;3.06;100.00
23899;BME280;20544;50.018;20.010;2024-03-07T16:02:02;99447.83;;;3.06;100.00
23899;BME280;20544;50.018;20.010;2024-03-07T16:05:22;99449.50;;;3.07;100.00
23899;BME280;20544;50.018;20.010;2024-03-07T16:08:41;99449.28;;;3.11;100.00
23899;BME280;20544;50.018;20.010;2024-03-07T16:12:05;99455.60;;;3.08;100.00
23899;BME280;20544;50.018;20.010;2024-03-07T16:15:40;99451.18;;;3.08;100.00
23899;BME280;20544;50.018;20.010;2024-03-07T16:19:00;99459.05;;;3.08;100.00
23899;BME280;20544;50.018;20.010;2024-03-07T16:22:20;99461.91;;;3.05;100.00
23899;BME280;20544;50.018;20.010;2024-03-07T16:25:39;99459.98;;;3.07;100.00
23899;BME280;20544;50.018;20.010;2024-03-07T16:28:57;99471.33;;;3.08;100.00
23899;BME280;20544;50.018;20.010;2024-03-07T16:32:15;99465.23;;;3.07;100.00
23899;BME280;20544;50.018;20.010;2024-03-07T16:35:35;99474.89;;;3.07;100.00
23899;BME280;20544;50.018;20.010;2024-03-07T16:38:55;99467.98;;;3.06;100.00
23899;BME280;20544;50.018;20.010;2024-03-07T16:42:16;99474.89;;;3.07;100.00
23899;BME280;20544;50.018;20.010;2024-03-07T16:45:34;99473.09;;;3.07;100.00
23899;BME280;20544;50.018;20.010;2024-03-07T16:48:54;99475.02;;;3.05;100.00
23899;BME280;20544;50.018;20.010;2024-03-07T16:52:12;99481.91;;;3.06;100.00
23899;BME280;20544;50.018;20.010;2024-03-07T16:55:37;99474.05;;;3.06;100.00
23899;BME280;20544;50.018;20.010;2024-03-07T16:59:00;99470.94;;;3.01;100.00
23899;BME280;20544;50.018;20.010;2024-03-07T17:02:28;99475.84;;;3.06;100.00
23899;BME280;20544;50.018;20.010;2024-03-07T17:05:58;99482.03;;;3.05;100.00
23899;BME280;20544;50.018;20.010;2024-03-07T17:09:17;99478.47;;;3.06;100.00
23899;BME280;20544;50.018;20.010;2024-03-07T17:12:39;99475.97;;;3.04;100.00
23899;BME280;20544;50.018;20.010;2024-03-07T17:16:07;99488.13;;;3.05;100.00
23899;BME280;20544;50.018;20.010;2024-03-07T17:19:30;99482.38;;;3.00;100.00
23899;BME280;20544;50.018;20.010;2024-03-07T17:23:15;99488.47;;;3.01;100.00
23899;BME280;20544;50.018;20.010;2024-03-07T17:26:44;99495.48;;;3.00;100.00
23899;BME280;20544;50.018;20.010;2024-03-07T17:30:16;99503.34;;;3.00;100.00
23899;BME280;20544;50.018;20.010;2024-03-07T17:33:49;99503.34;;;3.00;100.00
23899;BME280;20544;50.018;20.010;2024-03-07T17:37:21;99502.64;;;2.98;100.00
23899;BME280;20544;50.018;20.010;2024-03-07T17:40:55;99505.59;;;2.94;100.00
23899;BME280;20544;50.018;20.010;2024-03-07T17:44:31;99518.83;;;2.92;100.00
23899;BME280;20544;50.018;20.010;2024-03-07T17:48:01;99508.67;;;2.87;100.00
23899;BME280;20544;50.018;20.010;2024-03-07T17:55:30;99511.14;;;2.78;100.00
23899;BME280;20544;50.018;20.010;2024-03-07T17:59:17;99512.20;;;2.75;100.00
23899;BME280;20544;50.018;20.010;2024-03-07T18:02:36;99512.33;;;2.73;100.00
23899;BME280;20544;50.018;20.010;2024-03-07T18:06:07;99509.70;;;2.73;100.00
23899;BME280;20544;50.018;20.010;2024-03-07T18:09:41;99514.83;;;2.75;100.00
23899;BME280;20544;50.018;20.010;2024-03-07T18:13:27;99523.27;;;2.67;100.00
23899;BME280;20544;50.018;20.010;2024-03-07T18:17:14;99520.97;;;2.63;100.00
23899;BME280;20544;50.018;20.010;2024-03-07T18:20:35;99522.77;;;2.62;100.00
23899;BME280;20544;50.018;20.010;2024-03-07T18:23:55;99520.88;;;2.64;100.00
23899;BME280;20544;50.018;20.010;2024-03-07T18:27:14;99524.66;;;2.60;100.00
23899;BME280;20544;50.018;20.010;2024-03-07T18:30:33;99523.71;;;2.61;100.00
23899;BME280;20544;50.018;20.010;2024-03-07T18:33:51;99528.01;;;2.62;100.00
23899;BME280;20544;50.018;20.010;2024-03-07T18:37:08;99525.83;;;2.56;100.00
23899;BME280;20544;50.018;20.010;2024-03-07T18:40:27;99527.22;;;2.49;100.00
23899;BME280;20544;50.018;20.010;2024-03-07T18:43:48;99520.55;;;2.45;100.00
23899;BME280;20544;50.018;20.010;2024-03-07T18:47:24;99536.97;;;2.47;100.00
23899;BME280;20544;50.018;20.010;2024-03-07T18:50:43;99534.79;;;2.40;100.00
23899;BME280;20544;50.018;20.010;2024-03-07T18:54:01;99532.73;;;2.33;100.00
23899;BME280;20544;50.018;20.010;2024-03-07T18:57:19;99528.88;;;2.25;100.00
23899;BME280;20544;50.018;20.010;2024-03-07T19:00:53;99529.23;;;2.21;100.00
23899;BME280;20544;50.018;20.010;2024-03-07T19:04:22;99530.91;;;2.22;100.00
23899;BME280;20544;50.018;20.010;2024-03-07T19:07:46;99538.22;;;2.17;100.00
23899;BME280;20544;50.018;20.010;2024-03-07T19:11:16;99516.58;;;2.15;100.00
23899;BME280;20544;50.018;20.010;2024-03-07T19:14:34;99524.75;;;2.10;100.00